Bryan, Kentucky
Current Conditions -  °F | °C
As of 2:56 AM on Saturday 22 Nov 2014 (Local Time) from KEKQ Reporting Station
Few Clouds Few Clouds  
Wind Chill: 30°   Ceiling: Unl
Heat Index: 34°   Visibility: 10mi
Dew Point: 20°   Wind: 5mph
Humidity: 57%   Direction: 220°SW
Pressure: 30.4"   Gusts: NA
Location:  36.9448°N, 85.1275°W
Report Text: KEKQ 220856Z AUTO 22004KT 10SM FEW095 01/M07 A3040 RMK AO2 55004 T00111066 SLP301
Loading
Personal Weather Stations






























Interactive Weather Map New forecast layout! Learn more

10-Day Weather Forecast

Advertisements
Track Severe Weather on mobile